Time;durP1;ratioP1;P1;durP2;ratioP2;P2;SDS_P1;SDS_P2;PMS_P1;PMS_P2;Temp;Humidity;BMP_temperature;BMP_pressure;BME280_temperature;BME280_humidity;BME280_pressure;Samples;Min_cycle;Max_cycle;Signal;HPM_P1;HPM_P2
2022/04/12 00:00:22;;;;;;;1555.55;999.90;;;;;;;;;;4969179;28;20022;-55
2022/04/12 00:02:48;;;;;;;1557.93;999.90;;;;;;;;;;4982863;28;20044;-55
2022/04/12 00:05:13;;;;;;;1555.43;999.90;;;;;;;;;;4982368;28;20469;-55
2022/04/12 00:07:39;;;;;;;1554.05;999.90;;;;;;;;;;4983946;28;20034;-55
2022/04/12 00:10:04;;;;;;;1554.05;999.90;;;;;;;;;;4983923;28;20042;-55
2022/04/12 00:12:29;;;;;;;1560.93;999.90;;;;;;;;;;4979448;28;20077;-54
2022/04/12 00:14:55;;;;;;;1559.40;999.90;;;;;;;;;;4977252;28;20601;-56
2022/04/12 00:20:04;;;;;;;1559.93;999.90;;;;;;;;;;4979280;28;20181;-54
2022/04/12 00:22:30;;;;;;;1554.68;999.90;;;;;;;;;;4967792;28;20490;-55
2022/04/12 00:24:55;;;;;;;1563.63;999.90;;;;;;;;;;4979928;28;20023;-54
2022/04/12 00:27:20;;;;;;;1553.93;999.90;;;;;;;;;;4981032;28;20042;-55
2022/04/12 00:29:46;;;;;;;1549.57;999.90;;;;;;;;;;4976888;28;20537;-55
2022/04/12 00:32:11;;;;;;;1553.60;999.90;;;;;;;;;;4984621;28;20034;-54
2022/04/12 00:34:37;;;;;;;1559.85;999.90;;;;;;;;;;4982030;28;20442;-54
2022/04/12 00:37:02;;;;;;;1559.65;999.90;;;;;;;;;;4983816;28;20568;-54
2022/04/12 00:39:28;;;;;;;1559.78;999.90;;;;;;;;;;4980115;28;20038;-52
2022/04/12 00:41:53;;;;;;;1554.78;999.90;;;;;;;;;;4976343;28;20037;-54
2022/04/12 00:44:18;;;;;;;1554.95;999.90;;;;;;;;;;4983162;28;20030;-53
2022/04/12 00:46:43;;;;;;;1556.93;999.90;;;;;;;;;;4984733;28;20058;-53
2022/04/12 00:49:09;;;;;;;1551.90;999.90;;;;;;;;;;4981678;28;20874;-54
2022/04/12 00:51:34;;;;;;;1555.43;999.90;;;;;;;;;;4982900;28;20906;-53
2022/04/12 00:54:00;;;;;;;1555.90;999.90;;;;;;;;;;4983469;28;21091;-54
2022/04/12 00:56:25;;;;;;;1552.40;999.90;;;;;;;;;;4984496;28;20062;-55
2022/04/12 00:58:51;;;;;;;1560.18;999.90;;;;;;;;;;4963262;28;20368;-54
2022/04/12 01:01:16;;;;;;;1555.38;999.90;;;;;;;;;;4979883;28;20148;-57
2022/04/12 01:03:42;;;;;;;1554.22;999.90;;;;;;;;;;4984020;28;20108;-54
2022/04/12 01:06:07;;;;;;;1554.45;999.90;;;;;;;;;;4983471;28;20030;-54
2022/04/12 01:08:33;;;;;;;1550.53;999.90;;;;;;;;;;4966560;28;20657;-54
2022/04/12 01:10:59;;;;;;;1552.43;999.90;;;;;;;;;;4969850;28;20022;-53
2022/04/12 01:13:24;;;;;;;1553.65;999.90;;;;;;;;;;4961246;28;20502;-54
2022/04/12 01:15:49;;;;;;;1557.67;999.90;;;;;;;;;;4971143;28;20039;-54
2022/04/12 01:18:15;;;;;;;1557.20;999.90;;;;;;;;;;4973005;28;20408;-53
2022/04/12 01:20:40;;;;;;;1554.82;999.90;;;;;;;;;;4957653;28;20459;-54
2022/04/12 01:23:15;;;;;;;1553.13;999.90;;;;;;;;;;4980982;28;20038;-53
2022/04/12 01:25:40;;;;;;;1561.45;999.90;;;;;;;;;;4978710;28;20289;-58
2022/04/12 01:28:06;;;;;;;1560.45;999.90;;;;;;;;;;4982938;28;20032;-54
2022/04/12 01:30:31;;;;;;;1561.45;999.90;;;;;;;;;;4962158;28;20066;-55
2022/04/12 01:32:57;;;;;;;1558.87;999.90;;;;;;;;;;4983027;28;20583;-54
2022/04/12 01:35:22;;;;;;;1556.93;999.90;;;;;;;;;;4984057;28;20784;-54
2022/04/12 01:37:47;;;;;;;1561.50;999.90;;;;;;;;;;4964911;28;20501;-54
2022/04/12 01:40:13;;;;;;;1557.63;999.90;;;;;;;;;;4970778;28;20035;-54
2022/04/12 01:42:38;;;;;;;1555.50;999.90;;;;;;;;;;4979407;28;20046;-53
2022/04/12 01:45:04;;;;;;;1559.05;999.90;;;;;;;;;;4980106;28;20030;-54
2022/04/12 01:47:29;;;;;;;1560.43;999.90;;;;;;;;;;4974607;28;20042;-55
2022/04/12 01:49:54;;;;;;;1557.75;999.90;;;;;;;;;;4983638;28;20065;-54
2022/04/12 01:52:20;;;;;;;1558.47;999.90;;;;;;;;;;4982926;28;20038;-54
2022/04/12 01:54:45;;;;;;;1562.55;999.90;;;;;;;;;;4982512;28;20347;-52
2022/04/12 01:57:10;;;;;;;1562.50;999.90;;;;;;;;;;4960537;28;20071;-53
2022/04/12 01:59:36;;;;;;;1562.30;999.90;;;;;;;;;;4966400;28;20130;-54
2022/04/12 02:02:01;;;;;;;1552.90;999.90;;;;;;;;;;4974476;28;20376;-54
2022/04/12 02:04:26;;;;;;;1557.18;999.90;;;;;;;;;;4984149;28;20031;-55
2022/04/12 02:06:51;;;;;;;1559.82;999.90;;;;;;;;;;4983963;28;20515;-54
2022/04/12 02:09:17;;;;;;;1558.93;999.90;;;;;;;;;;4983335;28;20053;-54
2022/04/12 02:11:43;;;;;;;1561.05;999.90;;;;;;;;;;4974591;28;21326;-54
2022/04/12 02:14:08;;;;;;;1555.05;999.90;;;;;;;;;;4983050;28;20100;-54
2022/04/12 02:16:34;;;;;;;1551.77;999.90;;;;;;;;;;4984710;28;20117;-54
2022/04/12 02:18:59;;;;;;;1555.07;999.90;;;;;;;;;;4980889;28;20310;-55
2022/04/12 02:21:24;;;;;;;1553.72;999.90;;;;;;;;;;4973031;28;20038;-55
2022/04/12 02:23:49;;;;;;;1550.43;999.90;;;;;;;;;;4978955;28;20026;-54
2022/04/12 02:26:15;;;;;;;1559.95;999.90;;;;;;;;;;4959445;28;20282;-54
2022/04/12 02:28:40;;;;;;;1561.07;999.90;;;;;;;;;;4982547;28;20030;-55
2022/04/12 02:31:05;;;;;;;1559.38;999.90;;;;;;;;;;4982455;28;20037;-55
2022/04/12 02:33:30;;;;;;;1565.43;999.90;;;;;;;;;;4980999;28;20030;-55
2022/04/12 02:35:55;;;;;;;1562.10;999.90;;;;;;;;;;4982114;28;20538;-54
2022/04/12 02:38:21;;;;;;;1561.43;999.90;;;;;;;;;;4982585;28;20716;-54
2022/04/12 02:40:46;;;;;;;1557.15;999.90;;;;;;;;;;4985208;28;20034;-55
2022/04/12 02:43:11;;;;;;;1560.60;999.90;;;;;;;;;;4965080;28;20576;-54
2022/04/12 02:45:36;;;;;;;1560.90;999.90;;;;;;;;;;4981016;28;20375;-52
2022/04/12 02:48:02;;;;;;;1564.65;999.90;;;;;;;;;;4981914;28;20022;-54
2022/04/12 02:50:27;;;;;;;1561.78;999.90;;;;;;;;;;4980913;28;20169;-54
2022/04/12 02:52:52;;;;;;;1561.95;999.90;;;;;;;;;;4964382;28;20719;-54
2022/04/12 02:55:18;;;;;;;1557.97;999.90;;;;;;;;;;4983588;28;20053;-54
2022/04/12 02:57:43;;;;;;;1564.18;999.90;;;;;;;;;;4984047;28;21199;-54
2022/04/12 03:00:08;;;;;;;1561.22;999.90;;;;;;;;;;4983197;28;20084;-52
2022/04/12 03:02:33;;;;;;;1562.22;999.90;;;;;;;;;;4983339;28;20116;-54
2022/04/12 03:04:59;;;;;;;1558.60;999.90;;;;;;;;;;4981429;28;20485;-54
2022/04/12 03:07:24;;;;;;;1559.47;999.90;;;;;;;;;;4984974;28;20661;-52
2022/04/12 03:09:49;;;;;;;1553.07;999.90;;;;;;;;;;4983299;28;20688;-55
2022/04/12 03:12:15;;;;;;;1560.50;999.90;;;;;;;;;;4984634;28;20055;-54
2022/04/12 03:14:40;;;;;;;1564.68;999.90;;;;;;;;;;4974144;28;20754;-55
2022/04/12 03:17:05;;;;;;;1563.63;999.90;;;;;;;;;;4981887;28;20053;-55
2022/04/12 03:19:30;;;;;;;1561.15;999.90;;;;;;;;;;4983928;28;20518;-55
2022/04/12 03:21:56;;;;;;;1555.00;999.90;;;;;;;;;;4974267;28;19910;-55
2022/04/12 03:24:22;;;;;;;1563.47;999.90;;;;;;;;;;4968840;28;20281;-55
2022/04/12 03:26:48;;;;;;;1560.10;999.90;;;;;;;;;;4981851;28;20280;-55
2022/04/12 03:29:13;;;;;;;1561.35;999.90;;;;;;;;;;4981192;28;20030;-54
2022/04/12 03:31:38;;;;;;;1558.82;999.90;;;;;;;;;;4979565;28;20062;-54
2022/04/12 03:34:03;;;;;;;1558.17;999.90;;;;;;;;;;4980097;28;20027;-53
2022/04/12 03:36:29;;;;;;;1559.35;999.90;;;;;;;;;;4981876;28;20995;-55
2022/04/12 03:38:54;;;;;;;1561.47;999.90;;;;;;;;;;4983734;28;20524;-56
2022/04/12 03:41:21;;;;;;;1571.45;999.90;;;;;;;;;;4978294;28;20045;-54
2022/04/12 03:43:46;;;;;;;1561.85;999.90;;;;;;;;;;4978573;28;20033;-52
2022/04/12 03:46:12;;;;;;;1559.57;999.90;;;;;;;;;;4977741;28;20062;-54
2022/04/12 03:48:37;;;;;;;1557.28;999.90;;;;;;;;;;4979756;28;20073;-55
2022/04/12 03:51:02;;;;;;;1558.40;999.90;;;;;;;;;;4978127;28;20046;-54
2022/04/12 03:53:27;;;;;;;1567.57;999.90;;;;;;;;;;4979839;28;20295;-54
2022/04/12 03:55:55;;;;;;;1557.78;999.90;;;;;;;;;;4979386;28;20372;-54
2022/04/12 03:58:20;;;;;;;1563.85;999.90;;;;;;;;;;4978387;28;20113;-54
2022/04/12 04:00:46;;;;;;;1559.40;999.90;;;;;;;;;;4981765;28;20481;-54
2022/04/12 04:03:11;;;;;;;1561.22;999.90;;;;;;;;;;4965692;28;20630;-54
2022/04/12 04:05:36;;;;;;;1560.47;999.90;;;;;;;;;;4984120;28;20033;-55
2022/04/12 04:08:02;;;;;;;1564.43;999.90;;;;;;;;;;4984701;28;20030;-55
2022/04/12 04:10:27;;;;;;;1566.15;999.90;;;;;;;;;;4984299;28;20288;-55
2022/04/12 04:12:53;;;;;;;1566.28;999.90;;;;;;;;;;4977601;28;20653;-53
2022/04/12 04:15:18;;;;;;;1567.55;999.90;;;;;;;;;;4984301;28;20045;-54
2022/04/12 04:17:44;;;;;;;1566.70;999.90;;;;;;;;;;4987387;28;20066;-54
2022/04/12 04:20:13;;;;;;;1566.45;999.90;;;;;;;;;;4963635;28;20112;-55
2022/04/12 04:22:40;;;;;;;1560.72;999.90;;;;;;;;;;4983563;28;20030;-53
2022/04/12 04:25:06;;;;;;;1564.03;999.90;;;;;;;;;;4981341;28;20043;-54
2022/04/12 04:27:31;;;;;;;1564.07;999.90;;;;;;;;;;4984786;28;20507;-54
2022/04/12 04:29:56;;;;;;;1569.88;999.90;;;;;;;;;;4983334;28;20034;-54
2022/04/12 04:32:22;;;;;;;1557.05;999.90;;;;;;;;;;4982744;28;20101;-54
2022/04/12 04:34:47;;;;;;;1561.05;999.90;;;;;;;;;;4982789;28;20026;-53
2022/04/12 04:37:12;;;;;;;1557.00;999.90;;;;;;;;;;4979650;28;20073;-54
2022/04/12 04:39:38;;;;;;;1562.75;999.90;;;;;;;;;;4982867;28;20858;-54
2022/04/12 04:42:05;;;;;;;1557.97;999.90;;;;;;;;;;4985053;28;20022;-54
2022/04/12 04:44:30;;;;;;;1559.75;999.90;;;;;;;;;;4986213;28;20085;-55
2022/04/12 04:46:56;;;;;;;1565.68;999.90;;;;;;;;;;4982845;28;20478;-53
2022/04/12 04:49:24;;;;;;;1568.18;999.90;;;;;;;;;;4980690;28;20037;-53
2022/04/12 04:51:49;;;;;;;1566.43;999.90;;;;;;;;;;4982773;28;20045;-54
2022/04/12 04:54:15;;;;;;;1565.33;999.90;;;;;;;;;;4982066;28;20035;-54
2022/04/12 04:56:40;;;;;;;1568.40;999.90;;;;;;;;;;4973103;28;20368;-54
2022/04/12 04:59:05;;;;;;;1570.50;999.90;;;;;;;;;;4949223;28;20289;-53
2022/04/12 05:01:30;;;;;;;1566.00;999.90;;;;;;;;;;4982973;28;20332;-55
2022/04/12 05:03:56;;;;;;;1572.05;999.90;;;;;;;;;;4976947;28;20324;-56
2022/04/12 05:06:21;;;;;;;1568.13;999.90;;;;;;;;;;4982111;28;20633;-55
2022/04/12 05:08:47;;;;;;;1567.25;999.90;;;;;;;;;;4982943;28;20485;-55
2022/04/12 05:11:12;;;;;;;1572.75;999.90;;;;;;;;;;4981216;28;20030;-54
2022/04/12 05:13:37;;;;;;;1578.28;999.90;;;;;;;;;;4984286;28;20465;-57
2022/04/12 05:16:03;;;;;;;1573.50;999.90;;;;;;;;;;4982801;28;20043;-55
2022/04/12 05:18:29;;;;;;;1569.72;999.90;;;;;;;;;;4989160;28;20316;-53
2022/04/12 05:20:54;;;;;;;1566.57;999.90;;;;;;;;;;4989587;28;20038;-53
2022/04/12 05:23:20;;;;;;;1561.13;999.90;;;;;;;;;;4993474;28;20022;-53
2022/04/12 05:25:45;;;;;;;1563.22;999.90;;;;;;;;;;4991742;28;20089;-58
2022/04/12 05:28:10;;;;;;;1566.85;999.90;;;;;;;;;;4989799;28;20042;-55
2022/04/12 05:30:36;;;;;;;1571.10;999.90;;;;;;;;;;4987519;28;20046;-56
2022/04/12 05:33:01;;;;;;;1572.03;999.90;;;;;;;;;;4969083;28;20026;-54
2022/04/12 05:35:26;;;;;;;1567.85;999.90;;;;;;;;;;4985392;28;20450;-53
2022/04/12 05:37:52;;;;;;;1564.00;999.90;;;;;;;;;;4984243;28;20477;-53
2022/04/12 05:40:20;;;;;;;1562.63;999.90;;;;;;;;;;4985157;28;20433;-55
2022/04/12 05:42:46;;;;;;;1561.13;999.90;;;;;;;;;;4980698;28;20042;-54
2022/04/12 05:45:11;;;;;;;1563.00;999.90;;;;;;;;;;4983769;28;20024;-54
2022/04/12 05:47:49;;;;;;;1561.38;999.90;;;;;;;;;;4983100;28;20153;-54
2022/04/12 05:50:14;;;;;;;1567.15;999.90;;;;;;;;;;4979005;28;20042;-54
2022/04/12 05:52:40;;;;;;;1562.70;999.90;;;;;;;;;;4976824;28;20387;-55
2022/04/12 05:55:17;;;;;;;1562.38;999.90;;;;;;;;;;4956071;28;20054;-53
2022/04/12 05:57:56;;;;;;;1564.05;999.90;;;;;;;;;;4973084;28;20038;-54
2022/04/12 06:00:25;;;;;;;1568.38;999.90;;;;;;;;;;4972778;28;20125;-54
2022/04/12 06:02:51;;;;;;;1569.50;999.90;;;;;;;;;;4977771;28;20038;-53
2022/04/12 06:05:18;;;;;;;1566.38;999.90;;;;;;;;;;4943836;28;20050;-54
2022/04/12 06:07:43;;;;;;;1568.20;999.90;;;;;;;;;;4968421;28;20362;-56
2022/04/12 06:10:09;;;;;;;1566.20;999.90;;;;;;;;;;4976717;28;20035;-54
2022/04/12 06:12:35;;;;;;;1565.20;999.90;;;;;;;;;;4975565;28;20117;-55
2022/04/12 06:15:00;;;;;;;1563.22;999.90;;;;;;;;;;4979153;28;20102;-54
2022/04/12 06:17:29;;;;;;;1565.93;999.90;;;;;;;;;;4979305;28;20708;-54
2022/04/12 06:19:58;;;;;;;1561.75;999.90;;;;;;;;;;4974455;28;20041;-53
2022/04/12 06:22:23;;;;;;;1562.72;999.90;;;;;;;;;;4980682;28;20038;-54
2022/04/12 06:24:50;;;;;;;1570.13;999.90;;;;;;;;;;4979116;28;20034;-54
2022/04/12 06:27:15;;;;;;;1565.70;999.90;;;;;;;;;;4976050;28;20034;-55
2022/04/12 06:29:40;;;;;;;1563.03;999.90;;;;;;;;;;4982199;28;20727;-54
2022/04/12 06:32:05;;;;;;;1565.80;999.90;;;;;;;;;;4969919;28;20764;-54
2022/04/12 06:34:31;;;;;;;1563.70;999.90;;;;;;;;;;4979963;28;20399;-54
2022/04/12 06:36:56;;;;;;;1565.75;999.90;;;;;;;;;;4979272;28;20513;-54
2022/04/12 06:39:21;;;;;;;1565.13;999.90;;;;;;;;;;4977221;28;20041;-55
2022/04/12 06:41:46;;;;;;;1565.28;999.90;;;;;;;;;;4972317;28;20285;-55
2022/04/12 06:44:12;;;;;;;1560.20;999.90;;;;;;;;;;4976498;28;20053;-55
2022/04/12 06:46:37;;;;;;;1562.87;999.90;;;;;;;;;;4960668;28;21012;-55
2022/04/12 06:49:02;;;;;;;1561.90;999.90;;;;;;;;;;4975963;28;20720;-55
2022/04/12 06:51:28;;;;;;;1568.10;999.90;;;;;;;;;;4975588;28;20518;-55
2022/04/12 06:53:53;;;;;;;1562.63;999.90;;;;;;;;;;4978783;28;20046;-57
2022/04/12 06:56:18;;;;;;;1564.45;999.90;;;;;;;;;;4979619;28;20117;-55
2022/04/12 06:58:44;;;;;;;1564.28;999.90;;;;;;;;;;4977495;28;20062;-58
2022/04/12 07:01:09;;;;;;;1566.15;999.90;;;;;;;;;;4958639;28;20071;-54
2022/04/12 07:03:34;;;;;;;1562.72;999.90;;;;;;;;;;4972677;28;20126;-55
2022/04/12 07:06:00;;;;;;;1561.03;999.90;;;;;;;;;;4979686;28;20513;-55
2022/04/12 07:08:25;;;;;;;1563.90;999.90;;;;;;;;;;4976773;28;20036;-55
2022/04/12 07:10:51;;;;;;;1562.95;999.90;;;;;;;;;;4981253;28;20787;-55
2022/04/12 07:13:16;;;;;;;1560.90;999.90;;;;;;;;;;4976311;28;20049;-53
2022/04/12 07:15:42;;;;;;;1561.88;999.90;;;;;;;;;;4980440;28;20038;-53
2022/04/12 07:18:07;;;;;;;1564.10;999.90;;;;;;;;;;4981713;28;20046;-54
2022/04/12 07:20:32;;;;;;;1567.60;999.90;;;;;;;;;;4981465;28;19937;-54
2022/04/12 07:22:58;;;;;;;1567.85;999.90;;;;;;;;;;4982515;28;20302;-53
2022/04/12 07:25:23;;;;;;;1565.07;999.90;;;;;;;;;;4982256;28;20514;-53
2022/04/12 07:27:48;;;;;;;1562.05;999.90;;;;;;;;;;4981304;28;20034;-54
2022/04/12 07:30:14;;;;;;;1570.65;999.90;;;;;;;;;;4982617;28;20034;-54
2022/04/12 07:32:39;;;;;;;1568.10;999.90;;;;;;;;;;4973452;28;20039;-56
2022/04/12 07:35:06;;;;;;;1572.05;999.90;;;;;;;;;;4975363;28;20033;-55
2022/04/12 07:37:31;;;;;;;1564.93;999.90;;;;;;;;;;4978023;28;20056;-55
2022/04/12 07:39:56;;;;;;;1565.60;999.90;;;;;;;;;;4976033;28;20038;-52
2022/04/12 07:42:23;;;;;;;1566.32;999.90;;;;;;;;;;4966086;28;20510;-55
2022/04/12 07:44:48;;;;;;;1572.18;999.90;;;;;;;;;;4976484;28;20022;-55
2022/04/12 07:47:14;;;;;;;1567.88;999.90;;;;;;;;;;4979749;28;20062;-55
2022/04/12 07:49:39;;;;;;;1568.85;999.90;;;;;;;;;;4979152;28;20164;-55
2022/04/12 07:52:04;;;;;;;1561.93;999.90;;;;;;;;;;4967222;28;20027;-55
2022/04/12 07:54:30;;;;;;;1567.53;999.90;;;;;;;;;;4979960;28;20148;-55
2022/04/12 07:56:56;;;;;;;1567.90;999.90;;;;;;;;;;4962533;28;20040;-54
2022/04/12 07:59:21;;;;;;;1567.47;999.90;;;;;;;;;;4976133;28;20121;-55
2022/04/12 08:01:46;;;;;;;1571.45;999.90;;;;;;;;;;4980173;28;20342;-55
2022/04/12 08:04:11;;;;;;;1569.88;999.90;;;;;;;;;;4969244;28;20046;-55
2022/04/12 08:06:38;;;;;;;1567.97;999.90;;;;;;;;;;4976612;28;20069;-55
2022/04/12 08:09:03;;;;;;;1568.85;999.90;;;;;;;;;;4970588;28;20537;-55
2022/04/12 08:11:30;;;;;;;1561.40;999.90;;;;;;;;;;4980610;28;20126;-56
2022/04/12 08:13:55;;;;;;;1566.78;999.90;;;;;;;;;;4976307;28;20965;-55
2022/04/12 08:16:21;;;;;;;1570.55;999.90;;;;;;;;;;4978706;28;20050;-55
2022/04/12 08:18:46;;;;;;;1565.93;999.90;;;;;;;;;;4978622;28;20108;-54
2022/04/12 08:21:12;;;;;;;1568.50;999.90;;;;;;;;;;4968307;28;20441;-55
2022/04/12 08:23:37;;;;;;;1567.05;999.90;;;;;;;;;;4975414;28;20522;-55
2022/04/12 08:26:03;;;;;;;1568.70;999.90;;;;;;;;;;4973738;28;20038;-54
2022/04/12 08:28:29;;;;;;;1567.55;999.90;;;;;;;;;;4972963;28;20146;-55
2022/04/12 08:30:54;;;;;;;1569.47;999.90;;;;;;;;;;4978652;28;20141;-55
2022/04/12 08:33:20;;;;;;;1568.67;999.90;;;;;;;;;;4977973;28;20141;-55
2022/04/12 08:35:45;;;;;;;1564.82;999.90;;;;;;;;;;4978570;28;20305;-56
2022/04/12 08:38:10;;;;;;;1567.82;999.90;;;;;;;;;;4980526;28;20081;-53
2022/04/12 08:40:36;;;;;;;1563.63;999.90;;;;;;;;;;4978078;28;20026;-54
2022/04/12 08:43:01;;;;;;;1570.53;999.90;;;;;;;;;;4973384;28;20811;-57
2022/04/12 08:45:26;;;;;;;1571.60;999.90;;;;;;;;;;4958869;28;20039;-56
2022/04/12 08:47:52;;;;;;;1569.90;999.90;;;;;;;;;;4979264;28;20481;-55
2022/04/12 08:50:18;;;;;;;1568.25;999.90;;;;;;;;;;4970172;28;20480;-54
2022/04/12 08:52:43;;;;;;;1572.03;999.90;;;;;;;;;;4947886;28;20038;-54
2022/04/12 08:55:09;;;;;;;1560.93;999.90;;;;;;;;;;4965501;28;20061;-54
2022/04/12 08:57:34;;;;;;;1570.78;999.90;;;;;;;;;;4979153;28;20265;-55
2022/04/12 09:00:00;;;;;;;1569.13;999.90;;;;;;;;;;4979097;28;20134;-55
2022/04/12 09:02:25;;;;;;;1566.13;999.90;;;;;;;;;;4981914;28;20033;-53
2022/04/12 09:04:51;;;;;;;1564.18;999.90;;;;;;;;;;4981675;28;20402;-54
2022/04/12 09:07:17;;;;;;;1566.93;999.90;;;;;;;;;;4981861;28;20805;-52
2022/04/12 09:09:43;;;;;;;1571.20;999.90;;;;;;;;;;4982916;28;20046;-58
2022/04/12 09:12:09;;;;;;;1567.97;999.90;;;;;;;;;;4981476;28;20058;-55
2022/04/12 09:14:56;;;;;;;1574.53;999.90;;;;;;;;;;4971994;28;20038;-53
2022/04/12 09:17:30;;;;;;;1574.25;999.90;;;;;;;;;;4969365;28;20074;-55
2022/04/12 09:19:56;;;;;;;1574.40;999.90;;;;;;;;;;4977009;28;20038;-54
2022/04/12 09:22:22;;;;;;;1572.63;999.90;;;;;;;;;;4978708;28;20639;-53
2022/04/12 09:24:50;;;;;;;1573.35;999.90;;;;;;;;;;4981426;28;20142;-53
2022/04/12 09:27:17;;;;;;;1568.97;999.90;;;;;;;;;;4970483;28;20030;-54
2022/04/12 09:29:44;;;;;;;1571.53;999.90;;;;;;;;;;4977810;28;20100;-54
2022/04/12 09:32:13;;;;;;;1569.30;999.90;;;;;;;;;;4982901;28;20042;-53
2022/04/12 09:34:39;;;;;;;1568.93;999.90;;;;;;;;;;4983322;28;20049;-54
2022/04/12 09:37:14;;;;;;;1570.63;999.90;;;;;;;;;;4974761;28;20539;-53
2022/04/12 09:39:40;;;;;;;1565.53;999.90;;;;;;;;;;4983159;28;20133;-54
2022/04/12 09:42:07;;;;;;;1574.17;999.90;;;;;;;;;;4983833;28;20094;-55
2022/04/12 09:44:32;;;;;;;1572.47;999.90;;;;;;;;;;4959537;28;20353;-55
2022/04/12 09:46:58;;;;;;;1572.75;999.90;;;;;;;;;;4983705;28;20046;-54
2022/04/12 09:49:23;;;;;;;1573.65;999.90;;;;;;;;;;4966962;28;20038;-53
2022/04/12 09:51:48;;;;;;;1568.87;999.90;;;;;;;;;;4983439;28;20512;-54
2022/04/12 09:54:20;;;;;;;1571.72;999.90;;;;;;;;;;4984179;28;20832;-56
2022/04/12 09:56:46;;;;;;;1570.88;999.90;;;;;;;;;;4982654;28;20022;-54
2022/04/12 09:59:11;;;;;;;1573.63;999.90;;;;;;;;;;4982153;28;20057;-55
2022/04/12 10:01:39;;;;;;;1573.38;999.90;;;;;;;;;;4962245;28;20720;-53
2022/04/12 10:04:07;;;;;;;1570.40;999.90;;;;;;;;;;4984850;28;20506;-55
2022/04/12 10:06:32;;;;;;;1578.28;999.90;;;;;;;;;;4985759;28;20819;-55
2022/04/12 10:09:00;;;;;;;1574.80;999.90;;;;;;;;;;4983061;28;20121;-54
2022/04/12 10:11:25;;;;;;;1574.95;999.90;;;;;;;;;;4978216;28;20376;-55
2022/04/12 10:13:51;;;;;;;1575.40;999.90;;;;;;;;;;4983689;28;20514;-55
2022/04/12 10:16:17;;;;;;;1575.68;999.90;;;;;;;;;;4980533;28;20289;-56
2022/04/12 10:18:43;;;;;;;1576.53;999.90;;;;;;;;;;4983468;28;20047;-56
2022/04/12 10:21:09;;;;;;;1580.80;999.90;;;;;;;;;;4984815;28;20422;-56
2022/04/12 10:23:34;;;;;;;1582.95;999.90;;;;;;;;;;4980572;28;20037;-56
2022/04/12 10:26:01;;;;;;;1582.65;999.90;;;;;;;;;;4974148;28;20038;-57
2022/04/12 10:28:28;;;;;;;1574.78;999.90;;;;;;;;;;4978791;28;20038;-56
2022/04/12 10:31:22;;;;;;;1581.97;999.90;;;;;;;;;;4977865;28;20042;-55
2022/04/12 10:33:51;;;;;;;1581.50;999.90;;;;;;;;;;4963346;28;20049;-56
2022/04/12 10:36:17;;;;;;;1582.10;999.90;;;;;;;;;;4980064;28;20035;-55
2022/04/12 10:38:42;;;;;;;1576.93;999.90;;;;;;;;;;4966380;28;20061;-56
2022/04/12 10:41:31;;;;;;;1578.13;999.90;;;;;;;;;;4980951;28;20061;-57
2022/04/12 10:43:57;;;;;;;1571.57;999.90;;;;;;;;;;4971932;28;20037;-56
2022/04/12 10:46:22;;;;;;;1574.85;999.90;;;;;;;;;;4980535;28;20038;-56
2022/04/12 10:48:53;;;;;;;1572.00;999.90;;;;;;;;;;4965466;28;20041;-56
2022/04/12 10:51:18;;;;;;;1571.55;999.90;;;;;;;;;;4981684;28;20285;-55
2022/04/12 10:53:43;;;;;;;1566.60;999.90;;;;;;;;;;4963171;28;20038;-55
2022/04/12 10:56:10;;;;;;;1574.68;999.90;;;;;;;;;;4979199;28;20277;-55
2022/04/12 10:58:35;;;;;;;1573.78;999.90;;;;;;;;;;4978750;28;20061;-57
2022/04/12 11:01:01;;;;;;;1576.78;999.90;;;;;;;;;;4976225;28;20038;-55
2022/04/12 11:03:39;;;;;;;1576.70;999.90;;;;;;;;;;4977881;28;20247;-56
2022/04/12 11:06:06;;;;;;;1571.63;999.90;;;;;;;;;;4962398;28;20034;-54
2022/04/12 11:08:35;;;;;;;1578.13;999.90;;;;;;;;;;4980083;28;20045;-55
2022/04/12 11:11:00;;;;;;;1583.22;999.90;;;;;;;;;;4975267;28;20520;-54
2022/04/12 11:13:28;;;;;;;1580.40;999.90;;;;;;;;;;4971725;28;20035;-56
2022/04/12 11:15:54;;;;;;;1574.38;999.90;;;;;;;;;;4969470;28;20282;-56
2022/04/12 11:18:19;;;;;;;1572.82;999.90;;;;;;;;;;4977013;28;20185;-55
2022/04/12 11:20:48;;;;;;;1575.13;999.90;;;;;;;;;;4979920;28;20070;-56
2022/04/12 11:23:13;;;;;;;1577.40;999.90;;;;;;;;;;4973630;28;20407;-55
2022/04/12 11:25:44;;;;;;;1572.82;999.90;;;;;;;;;;4972796;28;20447;-53
2022/04/12 11:28:12;;;;;;;1566.15;999.90;;;;;;;;;;4967609;28;20038;-55
2022/04/12 11:30:38;;;;;;;1572.80;999.90;;;;;;;;;;4958669;28;20034;-55
2022/04/12 11:33:03;;;;;;;1568.60;999.90;;;;;;;;;;4980284;28;20421;-56
2022/04/12 11:35:30;;;;;;;1573.25;999.90;;;;;;;;;;4978360;28;20391;-56
2022/04/12 11:37:55;;;;;;;1565.38;999.90;;;;;;;;;;4978985;28;20042;-56
2022/04/12 11:40:20;;;;;;;1569.28;999.90;;;;;;;;;;4979543;28;20660;-55
2022/04/12 11:42:46;;;;;;;1564.60;999.90;;;;;;;;;;4961375;28;20061;-55
2022/04/12 11:45:11;;;;;;;1567.90;999.90;;;;;;;;;;4976898;28;20037;-56
2022/04/12 11:47:39;;;;;;;1557.40;999.90;;;;;;;;;;4977541;28;20134;-55
2022/04/12 11:50:14;;;;;;;1566.00;999.90;;;;;;;;;;4977167;28;20030;-55
2022/04/12 11:52:39;;;;;;;1559.05;999.90;;;;;;;;;;4977510;28;20094;-56
2022/04/12 11:55:04;;;;;;;1559.97;999.90;;;;;;;;;;4978228;28;20073;-56
2022/04/12 11:57:30;;;;;;;1567.82;999.90;;;;;;;;;;4978122;28;20293;-57
2022/04/12 11:59:58;;;;;;;1561.00;999.90;;;;;;;;;;4977166;28;20093;-56
2022/04/12 12:02:27;;;;;;;1558.63;999.90;;;;;;;;;;4978122;28;20716;-54
2022/04/12 12:04:56;;;;;;;1563.47;999.90;;;;;;;;;;4975589;28;20034;-55
2022/04/12 12:07:22;;;;;;;1563.72;999.90;;;;;;;;;;4977286;28;20513;-57
2022/04/12 12:09:52;;;;;;;1556.45;999.90;;;;;;;;;;4976419;28;20025;-56
2022/04/12 12:12:17;;;;;;;;;;;;;;;;;;4977368;28;20061;-55
2022/04/12 12:14:42;;;;;;;1556.47;999.90;;;;;;;;;;4977572;28;20389;-56
2022/04/12 12:17:09;;;;;;;1559.97;999.90;;;;;;;;;;4977277;28;20042;-55
2022/04/12 12:19:38;;;;;;;1561.68;999.90;;;;;;;;;;4980059;28;20036;-55
2022/04/12 12:22:13;;;;;;;1561.32;999.90;;;;;;;;;;4977890;28;20557;-55
2022/04/12 12:24:52;;;;;;;1556.97;999.90;;;;;;;;;;4977615;28;20076;-56
2022/04/12 12:27:37;;;;;;;1570.05;999.90;;;;;;;;;;4979818;28;20026;-51
2022/04/12 12:30:14;;;;;;;1561.70;999.90;;;;;;;;;;4982193;28;20058;-55
2022/04/12 12:32:40;;;;;;;1564.47;999.90;;;;;;;;;;4982481;28;20169;-55
2022/04/12 12:35:09;;;;;;;1565.05;999.90;;;;;;;;;;4980864;28;20130;-55
2022/04/12 12:37:35;;;;;;;1561.97;999.90;;;;;;;;;;4980567;28;20043;-54
2022/04/12 12:40:00;;;;;;;1560.30;999.90;;;;;;;;;;4965477;28;20053;-56
2022/04/12 12:42:34;;;;;;;1562.90;999.90;;;;;;;;;;4983101;28;20862;-55
2022/04/12 12:45:07;;;;;;;1565.85;999.90;;;;;;;;;;4964213;28;20050;-54
2022/04/12 12:47:34;;;;;;;1560.70;999.90;;;;;;;;;;4979513;28;20069;-55
2022/04/12 12:49:59;;;;;;;1558.50;999.90;;;;;;;;;;4982446;28;20034;-56
2022/04/12 12:52:25;;;;;;;1560.47;999.90;;;;;;;;;;4981464;28;20045;-53
2022/04/12 12:54:54;;;;;;;1562.68;999.90;;;;;;;;;;4961501;28;20911;-54
2022/04/12 12:57:34;;;;;;;1562.85;999.90;;;;;;;;;;4980335;28;20042;-55
2022/04/12 12:59:59;;;;;;;;;;;;;;;;;;4983018;28;20034;-55
2022/04/12 13:02:31;;;;;;;1559.57;999.90;;;;;;;;;;4982841;28;19980;-55
2022/04/12 13:04:57;;;;;;;1558.38;999.90;;;;;;;;;;4978484;28;20026;-54
2022/04/12 13:07:29;;;;;;;1551.03;999.90;;;;;;;;;;4964192;28;20409;-54
2022/04/12 13:09:55;;;;;;;1561.10;999.90;;;;;;;;;;4982284;28;20381;-55
2022/04/12 13:12:22;;;;;;;1563.35;999.90;;;;;;;;;;4980848;28;20030;-55
2022/04/12 13:14:48;;;;;;;1563.85;999.90;;;;;;;;;;4975122;28;20110;-55
2022/04/12 13:17:15;;;;;;;1565.13;999.90;;;;;;;;;;4977964;28;20122;-55
2022/04/12 13:19:40;;;;;;;1558.65;999.90;;;;;;;;;;4977204;28;20030;-54
2022/04/12 13:22:06;;;;;;;1563.07;999.90;;;;;;;;;;4979814;28;20379;-56
2022/04/12 13:24:33;;;;;;;1564.57;999.90;;;;;;;;;;4981608;28;20096;-57
2022/04/12 13:26:58;;;;;;;1559.95;999.90;;;;;;;;;;4980332;28;20112;-54
2022/04/12 13:29:24;;;;;;;1560.40;999.90;;;;;;;;;;4980042;28;20521;-53
2022/04/12 13:31:50;;;;;;;1560.68;999.90;;;;;;;;;;4979209;28;20038;-55
2022/04/12 13:34:15;;;;;;;1560.43;999.90;;;;;;;;;;4979941;28;20030;-55
2022/04/12 13:36:40;;;;;;;1553.90;999.90;;;;;;;;;;4981234;28;20034;-53
2022/04/12 13:39:08;;;;;;;1564.10;999.90;;;;;;;;;;4962215;28;20662;-55